createdAt,value
2023-03-13T00:01:43.357Z,13.90
2023-03-13T00:04:17.315Z,14.00
2023-03-13T00:06:46.941Z,13.90
2023-03-13T00:09:17.193Z,13.90
2023-03-13T00:11:45.846Z,13.90
2023-03-13T00:14:15.965Z,14.00
2023-03-13T00:16:43.280Z,14.00
2023-03-13T00:19:10.803Z,13.90
2023-03-13T00:21:43.071Z,13.90
2023-03-13T00:24:12.791Z,14.00
2023-03-13T00:26:39.902Z,13.90
2023-03-13T00:29:09.181Z,13.90
2023-03-13T00:31:36.483Z,13.90
2023-03-13T00:34:05.901Z,14.00
2023-03-13T00:36:35.996Z,14.00
2023-03-13T00:39:08.584Z,13.90
2023-03-13T00:41:37.140Z,13.90
2023-03-13T00:44:04.491Z,14.00
2023-03-13T00:46:34.279Z,14.00
2023-03-13T00:49:03.705Z,14.00
2023-03-13T00:51:31.033Z,14.00
2023-03-13T00:54:02.285Z,13.90
2023-03-13T00:56:29.742Z,13.90
2023-03-13T00:58:58.990Z,13.90
2023-03-13T01:01:30.403Z,13.90
2023-03-13T01:04:05.865Z,13.90
2023-03-13T01:06:37.726Z,13.90
2023-03-13T01:09:07.836Z,13.90
2023-03-13T01:11:42.141Z,13.90
2023-03-13T01:14:16.807Z,13.90
2023-03-13T01:16:43.979Z,13.90
2023-03-13T01:19:17.404Z,13.90
2023-03-13T01:21:51.206Z,13.90
2023-03-13T01:24:20.157Z,13.90
2023-03-13T01:26:47.569Z,13.90
2023-03-13T01:29:21.905Z,13.90
2023-03-13T01:31:51.582Z,13.90
2023-03-13T01:34:21.162Z,14.00
2023-03-13T01:36:52.381Z,14.00
2023-03-13T01:39:22.351Z,14.00
2023-03-13T01:41:51.958Z,14.00
2023-03-13T01:44:30.099Z,14.10
2023-03-13T01:46:57.175Z,14.10
2023-03-13T01:49:29.471Z,14.10
2023-03-13T01:52:25.892Z,14.20
2023-03-13T01:55:09.205Z,14.20
2023-03-13T01:57:46.341Z,14.20
2023-03-13T02:00:22.480Z,14.20
2023-03-13T02:02:55.409Z,14.20
2023-03-13T02:05:29.016Z,14.20
2023-03-13T02:08:13.417Z,14.20
2023-03-13T02:10:53.389Z,14.20
2023-03-13T02:13:25.251Z,14.20
2023-03-13T02:15:57.238Z,14.30
2023-03-13T02:18:26.634Z,14.30
2023-03-13T02:21:05.460Z,14.30
2023-03-13T02:23:46.878Z,14.40
2023-03-13T02:26:14.071Z,14.40
2023-03-13T02:28:44.042Z,14.40
2023-03-13T02:31:13.849Z,14.40
2023-03-13T02:33:44.913Z,14.40
2023-03-13T02:36:14.895Z,14.40
2023-03-13T02:38:53.365Z,14.40
2023-03-13T02:41:24.751Z,14.50
2023-03-13T02:43:51.869Z,14.50
2023-03-13T02:46:20.605Z,14.60
2023-03-13T02:48:55.479Z,14.60
2023-03-13T02:51:36.426Z,14.60
2023-03-13T02:54:08.822Z,14.70
2023-03-13T02:56:40.585Z,14.70
2023-03-13T02:59:13.342Z,14.70
2023-03-13T03:01:42.575Z,14.70
2023-03-13T03:04:12.223Z,14.70
2023-03-13T03:06:41.625Z,14.70
2023-03-13T03:09:11.257Z,14.80
2023-03-13T03:11:38.745Z,14.80
2023-03-13T03:14:09.323Z,14.90
2023-03-13T03:16:42.106Z,14.80
2023-03-13T03:19:13.986Z,14.90
2023-03-13T03:21:45.990Z,15.00
2023-03-13T03:24:17.520Z,15.00
2023-03-13T03:26:44.649Z,15.00
2023-03-13T03:29:16.504Z,15.00
2023-03-13T03:31:45.983Z,15.00
2023-03-13T03:34:13.191Z,15.00
2023-03-13T03:36:42.824Z,15.10
2023-03-13T03:39:10.018Z,15.10
2023-03-13T03:41:41.763Z,15.10
2023-03-13T03:44:11.236Z,15.20
2023-03-13T03:46:38.360Z,15.10
2023-03-13T03:49:10.559Z,15.20
2023-03-13T03:51:37.728Z,15.10
2023-03-13T03:54:07.446Z,15.20
2023-03-13T03:56:41.158Z,15.20
2023-03-13T03:59:12.623Z,15.20
2023-03-13T04:01:41.966Z,15.30
2023-03-13T04:04:11.382Z,15.20
2023-03-13T04:06:40.753Z,15.20
2023-03-13T04:09:09.958Z,15.20
2023-03-13T04:11:41.356Z,15.20
2023-03-13T04:14:10.485Z,15.30
2023-03-13T04:16:42.330Z,15.30
2023-03-13T04:19:11.652Z,15.30
2023-03-13T04:21:41.011Z,15.30
2023-03-13T04:24:10.278Z,15.30
2023-03-13T04:26:37.453Z,15.30
2023-03-13T04:29:06.627Z,15.30
2023-03-13T04:31:38.221Z,15.30
2023-03-13T04:34:07.513Z,15.40
2023-03-13T04:36:36.909Z,15.40
2023-03-13T04:39:06.421Z,15.40
2023-03-13T04:41:35.633Z,15.40
2023-03-13T04:44:05.753Z,15.40
2023-03-13T04:46:35.042Z,15.40
2023-03-13T04:49:02.198Z,15.40
2023-03-13T04:51:31.778Z,15.40
2023-03-13T04:53:58.919Z,15.50
2023-03-13T04:56:42.280Z,15.50
2023-03-13T04:59:18.453Z,15.50
2023-03-13T05:01:45.615Z,15.50
2023-03-13T05:04:15.319Z,15.40
2023-03-13T05:06:42.627Z,15.50
2023-03-13T05:09:09.876Z,15.50
2023-03-13T05:11:42.320Z,15.50
2023-03-13T05:14:11.485Z,15.50
2023-03-13T05:16:39.197Z,15.50
2023-03-13T05:19:06.312Z,15.50
2023-03-13T05:21:35.942Z,15.50
2023-03-13T05:24:05.356Z,15.50
2023-03-13T05:26:34.523Z,15.50
2023-03-13T05:29:01.727Z,15.50
2023-03-13T05:31:29.067Z,15.50
2023-03-13T05:33:56.633Z,15.50
2023-03-13T05:36:23.776Z,15.50
2023-03-13T05:38:51.046Z,15.50
2023-03-13T05:41:18.160Z,15.60
2023-03-13T05:43:45.294Z,15.60
2023-03-13T05:46:14.870Z,15.60
2023-03-13T05:48:42.030Z,15.60
2023-03-13T05:51:11.455Z,15.60
2023-03-13T05:53:40.903Z,15.60
2023-03-13T05:56:12.367Z,15.50
2023-03-13T05:58:41.762Z,15.60
2023-03-13T06:01:10.444Z,15.60
2023-03-13T06:03:42.035Z,15.60
2023-03-13T06:06:09.352Z,15.60
2023-03-13T06:08:38.982Z,15.60
2023-03-13T06:11:06.202Z,15.60
2023-03-13T06:13:33.542Z,15.60
2023-03-13T06:16:00.876Z,15.60
2023-03-13T06:18:30.979Z,15.50
2023-03-13T06:21:02.474Z,15.60
2023-03-13T06:23:29.622Z,15.60
2023-03-13T06:25:56.962Z,15.60
2023-03-13T06:28:28.584Z,15.60
2023-03-13T06:30:57.854Z,15.60
2023-03-13T06:33:26.334Z,15.60
2023-03-13T06:35:56.975Z,15.60
2023-03-13T06:38:28.464Z,15.60
2023-03-13T06:40:58.270Z,15.60
2023-03-13T06:43:25.797Z,15.60
2023-03-13T06:45:55.468Z,15.70
2023-03-13T06:48:27.627Z,15.60
2023-03-13T06:50:56.790Z,15.60
2023-03-13T06:53:28.606Z,15.60
2023-03-13T06:56:01.060Z,15.70
2023-03-13T06:58:32.760Z,15.70
2023-03-13T07:01:26.811Z,15.70
2023-03-13T07:03:58.642Z,15.70
2023-03-13T07:06:28.394Z,15.60
2023-03-13T07:08:57.748Z,15.70
2023-03-13T07:11:27.429Z,15.70
2023-03-13T07:14:06.579Z,15.70
2023-03-13T07:16:45.783Z,15.70
2023-03-13T07:19:13.671Z,15.70
2023-03-13T07:21:41.189Z,15.70
2023-03-13T07:24:10.953Z,15.70
2023-03-13T07:26:48.559Z,15.70
2023-03-13T07:29:26.201Z,15.70
2023-03-13T07:31:53.343Z,15.80
2023-03-13T07:34:22.738Z,15.80
2023-03-13T07:36:54.705Z,15.80
2023-03-13T07:39:27.478Z,15.80
2023-03-13T07:41:54.698Z,15.90
2023-03-13T07:44:23.901Z,15.90
2023-03-13T07:46:53.495Z,15.90
2023-03-13T07:49:22.866Z,15.90
2023-03-13T07:51:52.247Z,15.90
2023-03-13T07:54:19.455Z,15.90
2023-03-13T07:56:46.631Z,16.00
2023-03-13T07:59:13.789Z,16.00
2023-03-13T08:01:40.911Z,16.00
2023-03-13T08:04:14.928Z,16.00
2023-03-13T08:06:44.777Z,16.00
2023-03-13T08:09:16.384Z,16.10
2023-03-13T08:11:44.630Z,16.10
2023-03-13T08:14:14.343Z,16.10
2023-03-13T08:16:44.000Z,16.10
2023-03-13T08:19:13.702Z,16.10
2023-03-13T08:21:43.049Z,16.10
2023-03-13T08:24:11.696Z,16.10
2023-03-13T08:26:45.097Z,16.20
2023-03-13T08:29:14.896Z,16.20
2023-03-13T08:31:47.993Z,16.20
2023-03-13T08:34:16.870Z,16.20
2023-03-13T08:36:44.623Z,16.30
2023-03-13T08:39:17.320Z,16.30
2023-03-13T08:41:47.494Z,16.30
2023-03-13T08:44:16.972Z,16.30
2023-03-13T08:46:48.212Z,16.30
2023-03-13T08:49:17.768Z,16.40
2023-03-13T08:51:45.216Z,16.40
2023-03-13T08:54:12.555Z,16.40
2023-03-13T08:56:43.564Z,16.50
2023-03-13T08:59:15.507Z,16.50
2023-03-13T09:01:47.325Z,16.50
2023-03-13T09:04:17.873Z,16.50
2023-03-13T09:06:48.022Z,16.50
2023-03-13T09:09:17.614Z,16.50
2023-03-13T09:11:44.739Z,16.50
2023-03-13T09:14:14.317Z,16.50
2023-03-13T09:16:41.908Z,16.50
2023-03-13T09:19:11.539Z,16.60
2023-03-13T09:21:41.143Z,16.70
2023-03-13T09:24:08.709Z,16.70
2023-03-13T09:26:38.711Z,16.80
2023-03-13T09:29:09.821Z,16.80
2023-03-13T09:31:41.372Z,16.90
2023-03-13T09:34:08.477Z,16.90
2023-03-13T09:36:38.138Z,17.00
2023-03-13T09:39:10.629Z,17.00
2023-03-13T09:41:50.490Z,17.00
2023-03-13T09:44:26.758Z,17.00
2023-03-13T09:47:06.712Z,17.10
2023-03-13T09:49:36.435Z,17.00
2023-03-13T09:52:15.752Z,17.10
2023-03-13T09:54:48.170Z,17.10
2023-03-13T09:57:49.204Z,17.10
2023-03-13T10:00:31.761Z,17.20
2023-03-13T10:03:07.938Z,17.30
2023-03-13T10:05:35.147Z,17.30
2023-03-13T10:08:13.059Z,17.30
2023-03-13T10:10:46.167Z,17.30
2023-03-13T10:13:34.494Z,17.30
2023-03-13T10:16:09.794Z,17.40
2023-03-13T10:18:37.734Z,17.40
2023-03-13T10:21:26.731Z,17.40
2023-03-13T10:24:17.904Z,17.50
2023-03-13T10:26:50.172Z,17.50
2023-03-13T10:29:23.793Z,17.60
2023-03-13T10:32:05.698Z,17.60
2023-03-13T10:35:05.661Z,17.50
2023-03-13T10:37:44.181Z,17.60
2023-03-13T10:40:14.139Z,17.60
2023-03-13T10:42:46.596Z,17.60
2023-03-13T10:45:19.445Z,17.60
2023-03-13T10:48:00.147Z,17.60
2023-03-13T10:50:36.185Z,17.50
2023-03-13T10:53:23.181Z,17.60
2023-03-13T10:55:56.546Z,17.60
2023-03-13T10:58:48.404Z,17.60
2023-03-13T11:01:16.684Z,17.60
2023-03-13T11:03:47.763Z,17.60
2023-03-13T11:06:29.031Z,17.60
2023-03-13T11:09:21.767Z,17.60
2023-03-13T11:12:01.364Z,17.60
2023-03-13T11:14:34.932Z,17.60
2023-03-13T11:17:15.813Z,17.60
2023-03-13T11:19:53.736Z,17.70
2023-03-13T11:22:51.513Z,17.70
2023-03-13T11:25:43.894Z,17.70
2023-03-13T11:28:30.956Z,17.70
2023-03-13T11:31:23.963Z,17.70
2023-03-13T11:34:02.405Z,17.70
2023-03-13T11:36:35.240Z,17.70
2023-03-13T11:39:32.146Z,17.80
2023-03-13T11:42:11.029Z,17.80
2023-03-13T11:45:17.582Z,17.90
2023-03-13T11:47:56.550Z,17.90
2023-03-13T11:50:32.134Z,18.00
2023-03-13T11:53:20.113Z,18.00
2023-03-13T11:55:53.474Z,18.10
2023-03-13T11:58:22.875Z,18.00
2023-03-13T12:01:11.203Z,18.00
2023-03-13T12:03:57.307Z,18.10
2023-03-13T12:06:38.094Z,18.00
2023-03-13T12:09:16.111Z,18.00
2023-03-13T12:12:03.239Z,18.00
2023-03-13T12:14:57.908Z,18.00
2023-03-13T12:17:42.328Z,18.00
2023-03-13T12:20:25.541Z,18.00
2023-03-13T12:23:17.293Z,17.90
2023-03-13T12:25:50.647Z,17.90
2023-03-13T12:28:52.925Z,17.90
2023-03-13T12:31:35.374Z,17.90
2023-03-13T12:34:20.711Z,18.00
2023-03-13T12:37:12.604Z,18.00
2023-03-13T12:39:50.260Z,18.00
2023-03-13T12:42:37.561Z,18.00
2023-03-13T12:45:21.791Z,18.10
2023-03-13T12:48:07.314Z,18.10
2023-03-13T12:51:12.338Z,18.00
2023-03-13T12:53:48.809Z,18.00
2023-03-13T12:56:18.834Z,18.00
2023-03-13T12:58:50.364Z,18.00
2023-03-13T13:01:33.816Z,18.00
2023-03-13T13:04:05.960Z,18.00
2023-03-13T13:06:51.517Z,18.10
2023-03-13T13:09:27.269Z,18.10
2023-03-13T13:12:04.208Z,18.20
2023-03-13T13:14:31.316Z,18.20
2023-03-13T13:17:17.269Z,18.20
2023-03-13T13:19:46.730Z,18.20
2023-03-13T13:22:37.913Z,18.10
2023-03-13T13:25:08.002Z,18.20
2023-03-13T13:27:35.114Z,18.20
2023-03-13T13:30:19.496Z,18.20
2023-03-13T13:32:55.715Z,18.20
2023-03-13T13:35:29.498Z,18.20
2023-03-13T13:38:18.675Z,18.20
2023-03-13T13:41:02.574Z,18.30
2023-03-13T13:43:35.080Z,18.30
2023-03-13T13:46:02.282Z,18.30
2023-03-13T13:48:38.686Z,18.30
2023-03-13T13:51:14.707Z,18.30
2023-03-13T13:53:54.858Z,18.30
2023-03-13T13:56:36.758Z,18.20
2023-03-13T13:59:24.884Z,18.10
2023-03-13T14:02:03.821Z,18.10
2023-03-13T14:04:40.937Z,18.10
2023-03-13T14:07:28.179Z,18.10
2023-03-13T14:10:05.156Z,18.10
2023-03-13T14:12:33.667Z,18.00
2023-03-13T14:15:17.941Z,18.10
2023-03-13T14:17:50.752Z,18.10
2023-03-13T14:20:26.816Z,18.10
2023-03-13T14:22:56.480Z,18.10
2023-03-13T14:25:27.706Z,18.10
2023-03-13T14:27:57.293Z,18.10
2023-03-13T14:30:27.287Z,18.20
2023-03-13T14:32:54.622Z,18.20
2023-03-13T14:35:26.374Z,18.20
2023-03-13T14:38:04.600Z,18.30
2023-03-13T14:40:39.041Z,18.30
2023-03-13T14:43:21.472Z,18.30
2023-03-13T14:45:51.472Z,18.30
2023-03-13T14:48:34.025Z,18.20
2023-03-13T14:51:15.790Z,18.20
2023-03-13T14:54:00.936Z,18.20
2023-03-13T14:56:37.999Z,18.20
2023-03-13T14:59:28.412Z,18.10
2023-03-13T15:02:16.112Z,18.20
2023-03-13T15:04:52.196Z,18.20
2023-03-13T15:07:22.940Z,18.20
2023-03-13T15:09:52.910Z,18.20
2023-03-13T15:12:25.831Z,18.20
2023-03-13T15:14:55.813Z,18.30
2023-03-13T15:17:27.411Z,18.20
2023-03-13T15:20:02.626Z,18.30
2023-03-13T15:22:36.294Z,18.30
2023-03-13T15:25:17.827Z,18.30
2023-03-13T15:27:48.098Z,18.30
2023-03-13T15:30:19.083Z,18.30
2023-03-13T15:32:52.838Z,18.20
2023-03-13T15:35:25.297Z,18.20
2023-03-13T15:37:52.430Z,18.10
2023-03-13T15:40:20.380Z,18.20
2023-03-13T15:42:50.092Z,18.20
2023-03-13T15:45:17.398Z,18.20
2023-03-13T15:47:45.824Z,18.20
2023-03-13T15:50:15.423Z,18.20
2023-03-13T15:52:42.942Z,18.20
2023-03-13T15:55:13.974Z,18.30
2023-03-13T15:57:48.639Z,18.30
2023-03-13T16:00:24.983Z,18.30
2023-03-13T16:02:52.341Z,18.30
2023-03-13T16:05:24.554Z,18.30
2023-03-13T16:07:52.007Z,18.30
2023-03-13T16:10:28.646Z,18.30
2023-03-13T16:13:00.421Z,18.30
2023-03-13T16:15:30.152Z,18.30
2023-03-13T16:17:59.585Z,18.30
2023-03-13T16:20:33.006Z,18.30
2023-03-13T16:23:03.812Z,18.30
2023-03-13T16:25:32.373Z,18.20
2023-03-13T16:28:04.241Z,18.20
2023-03-13T16:30:34.957Z,18.20
2023-03-13T16:33:05.165Z,18.10
2023-03-13T16:35:32.657Z,18.10
2023-03-13T16:38:00.247Z,18.10
2023-03-13T16:40:35.882Z,18.10
2023-03-13T16:43:05.420Z,18.00
2023-03-13T16:45:34.779Z,18.00
2023-03-13T16:48:04.611Z,17.90
2023-03-13T16:50:40.825Z,18.00
2023-03-13T16:53:12.604Z,17.90
2023-03-13T16:55:39.762Z,17.90
2023-03-13T16:58:13.069Z,17.90
2023-03-13T17:00:40.721Z,17.90
2023-03-13T17:03:08.050Z,17.90
2023-03-13T17:05:35.329Z,17.80
2023-03-13T17:08:02.710Z,17.80
2023-03-13T17:10:34.541Z,17.70
2023-03-13T17:13:05.540Z,17.70
2023-03-13T17:15:32.700Z,17.70
2023-03-13T17:18:01.978Z,17.60
2023-03-13T17:20:30.464Z,17.60
2023-03-13T17:23:01.135Z,17.60
2023-03-13T17:25:31.501Z,17.60
2023-03-13T17:28:04.086Z,17.60
2023-03-13T17:30:34.265Z,17.60
2023-03-13T17:33:01.437Z,17.60
2023-03-13T17:35:32.952Z,17.60
2023-03-13T17:38:00.090Z,17.60
2023-03-13T17:40:32.691Z,17.50
2023-03-13T17:42:59.906Z,17.50
2023-03-13T17:45:30.832Z,17.50
2023-03-13T17:48:05.802Z,17.50
2023-03-13T17:50:35.231Z,17.50
2023-03-13T17:53:04.525Z,17.40
2023-03-13T17:55:34.855Z,17.40
2023-03-13T17:58:01.950Z,17.30
2023-03-13T18:00:35.194Z,17.30
2023-03-13T18:03:05.534Z,17.30
2023-03-13T18:05:32.770Z,17.30
2023-03-13T18:08:09.038Z,17.30
2023-03-13T18:10:36.149Z,17.30
2023-03-13T18:13:05.486Z,17.20
2023-03-13T18:15:34.776Z,17.20
2023-03-13T18:18:12.875Z,17.20
2023-03-13T18:20:42.524Z,17.20
2023-03-13T18:23:14.152Z,17.20
2023-03-13T18:25:43.383Z,17.20
2023-03-13T18:28:13.064Z,17.10
2023-03-13T18:30:40.260Z,17.10
2023-03-13T18:33:11.985Z,17.10
2023-03-13T18:35:44.022Z,17.10
2023-03-13T18:38:13.901Z,17.00
2023-03-13T18:40:41.056Z,17.00
2023-03-13T18:43:10.509Z,16.90
2023-03-13T18:45:40.243Z,16.90
2023-03-13T18:48:11.064Z,16.90
2023-03-13T18:50:38.263Z,16.90
2023-03-13T18:53:08.499Z,16.90
2023-03-13T18:55:41.285Z,16.90
2023-03-13T18:58:12.598Z,16.90
2023-03-13T19:00:44.512Z,16.80
2023-03-13T19:03:11.761Z,16.80
2023-03-13T19:05:41.222Z,16.80
2023-03-13T19:08:10.996Z,16.70
2023-03-13T19:10:38.662Z,16.70
2023-03-13T19:13:05.871Z,16.70
2023-03-13T19:15:36.882Z,16.70
2023-03-13T19:18:04.347Z,16.60
2023-03-13T19:20:34.354Z,16.60
2023-03-13T19:23:01.780Z,16.50
2023-03-13T19:25:33.598Z,16.50
2023-03-13T19:28:05.637Z,16.50
2023-03-13T19:30:32.849Z,16.50
2023-03-13T19:33:05.584Z,16.50
2023-03-13T19:35:32.807Z,16.50
2023-03-13T19:38:05.563Z,16.40
2023-03-13T19:40:32.888Z,16.30
2023-03-13T19:43:02.532Z,16.30
2023-03-13T19:45:35.017Z,16.30
2023-03-13T19:48:05.537Z,16.20
2023-03-13T19:50:37.909Z,16.20
2023-03-13T19:53:08.017Z,16.20
2023-03-13T19:55:37.500Z,16.10
2023-03-13T19:58:09.423Z,16.10
2023-03-13T20:00:37.455Z,16.10
2023-03-13T20:03:06.961Z,16.10
2023-03-13T20:05:36.769Z,16.10
2023-03-13T20:08:06.394Z,16.00
2023-03-13T20:10:36.052Z,16.00
2023-03-13T20:13:05.423Z,15.90
2023-03-13T20:15:32.571Z,15.90
2023-03-13T20:18:01.921Z,15.90
2023-03-13T20:20:32.081Z,15.90
2023-03-13T20:23:01.294Z,15.80
2023-03-13T20:25:30.545Z,15.80
2023-03-13T20:27:59.920Z,15.80
2023-03-13T20:30:27.056Z,15.80
2023-03-13T20:32:59.570Z,15.70
2023-03-13T20:35:28.338Z,15.70
2023-03-13T20:37:57.831Z,15.60
2023-03-13T20:40:29.744Z,15.60
2023-03-13T20:42:58.370Z,15.60
2023-03-13T20:45:28.412Z,15.60
2023-03-13T20:47:58.946Z,15.60
2023-03-13T20:50:30.874Z,15.60
2023-03-13T20:53:00.372Z,15.60
2023-03-13T20:55:30.454Z,15.50
2023-03-13T20:57:58.055Z,15.50
2023-03-13T21:00:30.028Z,15.50
2023-03-13T21:03:00.189Z,15.50
2023-03-13T21:05:29.742Z,15.40
2023-03-13T21:07:58.906Z,15.50
2023-03-13T21:10:28.266Z,15.40
2023-03-13T21:12:57.552Z,15.50
2023-03-13T21:15:27.014Z,15.50
2023-03-13T21:17:56.525Z,15.40
2023-03-13T21:20:24.751Z,15.40
2023-03-13T21:22:52.572Z,15.40
2023-03-13T21:25:23.200Z,15.40
2023-03-13T21:27:52.502Z,15.30
2023-03-13T21:30:24.519Z,15.30
2023-03-13T21:32:58.392Z,15.30
2023-03-13T21:35:25.668Z,15.30
2023-03-13T21:37:52.874Z,15.30
2023-03-13T21:40:22.229Z,15.30
2023-03-13T21:42:51.401Z,15.30
2023-03-13T21:45:20.701Z,15.20
2023-03-13T21:47:47.841Z,15.20
2023-03-13T21:50:15.141Z,15.20
2023-03-13T21:52:45.569Z,15.20
2023-03-13T21:55:13.343Z,15.20
2023-03-13T21:57:41.081Z,15.20
2023-03-13T22:00:14.021Z,15.20
2023-03-13T22:02:46.010Z,15.20
2023-03-13T22:05:15.607Z,15.20
2023-03-13T22:07:42.853Z,15.20
2023-03-13T22:10:14.575Z,15.20
2023-03-13T22:12:46.544Z,15.20
2023-03-13T22:15:20.684Z,15.20
2023-03-13T22:17:47.778Z,15.20
2023-03-13T22:20:17.586Z,15.20
2023-03-13T22:22:47.278Z,15.20
2023-03-13T22:25:14.580Z,15.20
2023-03-13T22:27:43.832Z,15.10
2023-03-13T22:30:14.035Z,15.20
2023-03-13T22:32:43.775Z,15.20
2023-03-13T22:35:11.038Z,15.20
2023-03-13T22:37:38.437Z,15.10
2023-03-13T22:40:06.537Z,15.10
2023-03-13T22:42:33.651Z,15.10
2023-03-13T22:45:03.182Z,15.10
2023-03-13T22:47:32.953Z,15.10
2023-03-13T22:50:02.359Z,15.10
2023-03-13T22:52:33.294Z,15.10
2023-03-13T22:55:00.498Z,15.00
2023-03-13T22:57:29.237Z,15.00
2023-03-13T23:00:00.230Z,14.90
2023-03-13T23:02:30.275Z,14.90
2023-03-13T23:05:02.216Z,14.80
2023-03-13T23:07:32.683Z,14.80
2023-03-13T23:10:04.782Z,14.80
2023-03-13T23:12:34.445Z,14.70
2023-03-13T23:15:04.142Z,14.70
2023-03-13T23:17:39.064Z,14.70
2023-03-13T23:20:13.587Z,14.70
2023-03-13T23:22:48.867Z,14.60
2023-03-13T23:25:21.438Z,14.60
2023-03-13T23:27:50.957Z,14.60
2023-03-13T23:30:20.765Z,14.60
2023-03-13T23:32:49.994Z,14.60
2023-03-13T23:35:19.683Z,14.60
2023-03-13T23:37:53.822Z,14.50
2023-03-13T23:40:22.484Z,14.40
2023-03-13T23:42:54.084Z,14.40
2023-03-13T23:45:28.567Z,14.40
2023-03-13T23:48:00.793Z,14.30
2023-03-13T23:50:30.352Z,14.30
2023-03-13T23:52:59.985Z,14.30
2023-03-13T23:55:31.749Z,14.30
2023-03-13T23:58:01.123Z,14.30
